Time;durP1;ratioP1;P1;durP2;ratioP2;P2;SDS_P1;SDS_P2;PMS_P1;PMS_P2;Temp;Humidity;BMP_temperature;BMP_pressure;BME280_temperature;BME280_humidity;BME280_pressure;Samples;Min_cycle;Max_cycle;Signal;HPM_P1;HPM_P2
2023/07/01 00:00:30;;;;;;;5.85;2.50;;;;;;;17.93;58.74;100739.44;4993803;28;20047;-77
2023/07/01 00:03:03;;;;;;;4.75;3.05;;;;;;;17.93;58.66;100740.16;4994174;28;20546;-76
2023/07/01 00:05:30;;;;;;;6.75;2.40;;;;;;;17.94;58.95;100738.94;4993244;28;20126;-76
2023/07/01 00:07:57;;;;;;;2.63;2.42;;;;;;;17.94;58.58;100738.94;4993628;28;20046;-76
2023/07/01 00:10:25;;;;;;;6.78;3.03;;;;;;;17.95;58.76;100731.59;4993136;28;20444;-76
2023/07/01 00:12:52;;;;;;;5.22;2.60;;;;;;;17.92;58.66;100722.53;4993822;28;20633;-76
2023/07/01 00:15:19;;;;;;;6.50;3.00;;;;;;;17.90;59.48;100718.88;4975685;28;20046;-77
2023/07/01 00:17:45;;;;;;;5.70;2.97;;;;;;;17.89;59.69;100725.47;4992453;28;20531;-76
2023/07/01 00:20:12;;;;;;;5.40;2.60;;;;;;;17.90;59.98;100719.59;4993171;28;20126;-77
2023/07/01 00:22:39;;;;;;;3.13;2.40;;;;;;;17.90;59.79;100718.88;4993344;28;20039;-77
2023/07/01 00:25:05;;;;;;;3.97;3.00;;;;;;;17.85;60.79;100723.03;4993372;28;20050;-77
2023/07/01 00:27:32;;;;;;;5.63;2.97;;;;;;;17.84;61.25;100718.13;4993233;28;20051;-76
2023/07/01 00:29:59;;;;;;;6.72;2.90;;;;;;;17.83;62.15;100716.66;4975911;28;20051;-76
2023/07/01 00:32:25;;;;;;;6.60;2.80;;;;;;;17.81;61.92;100713.72;4975159;28;20055;-76
2023/07/01 00:34:52;;;;;;;4.72;3.10;;;;;;;17.80;62.21;100706.88;4975702;28;20046;-76
2023/07/01 00:37:18;;;;;;;5.80;3.17;;;;;;;17.79;61.63;100708.09;4991469;28;20043;-76
2023/07/01 00:39:45;;;;;;;4.75;2.88;;;;;;;17.78;61.92;100698.56;4992019;28;20057;-76
2023/07/01 00:42:12;;;;;;;9.60;3.70;;;;;;;17.79;62.17;100695.38;4991647;28;20117;-76
2023/07/01 00:44:38;;;;;;;3.22;2.53;;;;;;;17.77;61.94;100692.44;4991531;28;20485;-75
2023/07/01 00:47:05;;;;;;;3.10;2.38;;;;;;;17.77;62.11;100687.03;4992991;28;20051;-75
2023/07/01 00:49:33;;;;;;;3.10;2.80;;;;;;;17.76;62.21;100687.53;4974915;28;20061;-75
2023/07/01 00:52:00;;;;;;;3.28;2.90;;;;;;;17.77;61.82;100678.22;4991816;28;20162;-76
2023/07/01 00:54:27;;;;;;;7.43;3.00;;;;;;;17.75;61.92;100676.03;4991327;28;20051;-75
2023/07/01 00:56:55;;;;;;;7.97;2.92;;;;;;;17.71;62.65;100659.38;4993134;28;20049;-76
2023/07/01 00:59:21;;;;;;;7.70;2.70;;;;;;;17.70;62.75;100668.69;4974460;28;20046;-76
2023/07/01 01:01:53;;;;;;;7.80;3.22;;;;;;;17.69;62.63;100661.09;4993053;28;20042;-76
2023/07/01 01:04:31;;;;;;;4.07;2.70;;;;;;;17.71;62.58;100656.69;4992880;28;20049;-76
2023/07/01 01:07:07;;;;;;;13.45;3.00;;;;;;;17.67;63.46;100658.91;4975203;28;20051;-76
2023/07/01 01:09:48;;;;;;;15.40;3.40;;;;;;;17.61;64.11;100658.13;4990932;28;20050;-77
2023/07/01 01:12:19;;;;;;;4.55;3.13;;;;;;;17.56;65.64;100640.06;4971305;28;20055;-75
2023/07/01 01:14:48;;;;;;;4.97;2.92;;;;;;;17.49;65.51;100646.66;4973721;28;20111;-77
2023/07/01 01:17:19;;;;;;;7.07;3.30;;;;;;;17.47;65.71;100645.69;4972700;28;20070;-76
2023/07/01 01:19:56;;;;;;;4.85;2.75;;;;;;;17.46;65.92;100644.94;4973668;28;20142;-76
2023/07/01 01:22:38;;;;;;;5.88;2.95;;;;;;;17.46;66.26;100652.28;4970879;28;20075;-75
2023/07/01 01:25:27;;;;;;;4.88;3.00;;;;;;;17.46;66.32;100655.72;4971211;28;20043;-76
2023/07/01 01:27:58;;;;;;;7.15;3.33;;;;;;;17.41;67.04;100640.28;4973338;28;20052;-77
2023/07/01 01:30:33;;;;;;;;;;;;;;;17.38;65.02;100640.53;4973086;28;20547;-76
2023/07/01 01:33:00;;;;;;;5.35;2.50;;;;;;;17.33;67.66;100625.84;4972896;28;19977;-76
2023/07/01 01:35:27;;;;;;;5.82;3.10;;;;;;;17.32;68.17;100624.38;4971066;28;20497;-77
2023/07/01 01:38:03;;;;;;;4.82;2.75;;;;;;;17.30;67.95;100614.09;4973263;28;20138;-76
2023/07/01 01:40:47;;;;;;;6.43;3.00;;;;;;;17.26;67.99;100616.31;4971494;28;20083;-77
2023/07/01 01:43:20;;;;;;;9.70;2.90;;;;;;;17.26;68.71;100610.91;4972906;28;20045;-76
2023/07/01 01:45:48;;;;;;;3.10;2.78;;;;;;;17.30;68.93;100616.78;4971231;28;20078;-76
2023/07/01 01:48:16;;;;;;;2.90;2.70;;;;;;;17.27;68.94;100604.31;4971430;28;20443;-76
2023/07/01 01:50:48;;;;;;;3.28;2.85;;;;;;;17.28;69.26;100607.75;4971192;28;20061;-76
2023/07/01 01:53:17;;;;;;;10.13;3.15;;;;;;;17.26;70.12;100596.75;4971267;28;20062;-76
2023/07/01 01:55:44;;;;;;;9.52;2.92;;;;;;;17.22;70.39;100594.28;4987663;28;20122;-76
2023/07/01 01:58:11;;;;;;;3.65;2.83;;;;;;;17.23;70.97;100600.41;4971126;28;20095;-76
2023/07/01 02:00:38;;;;;;;9.10;2.97;;;;;;;17.17;71.54;100589.66;4972046;28;20474;-77
2023/07/01 02:03:06;;;;;;;3.97;3.05;;;;;;;17.12;71.85;100584.28;4971250;28;20059;-76
2023/07/01 02:05:33;;;;;;;5.22;3.15;;;;;;;17.08;72.16;100581.81;4970960;28;20051;-76
2023/07/01 02:08:02;;;;;;;4.40;2.92;;;;;;;17.05;72.57;100580.09;4987788;28;20536;-76
2023/07/01 02:10:29;;;;;;;5.25;3.15;;;;;;;17.08;72.63;100578.41;4971756;28;20058;-76
2023/07/01 02:12:56;;;;;;;4.55;3.20;;;;;;;17.04;72.78;100572.53;4958657;28;20059;-77
2023/07/01 02:15:22;;;;;;;6.18;3.50;;;;;;;17.04;73.14;100567.16;4989570;28;20102;-76
2023/07/01 02:17:49;;;;;;;12.45;3.20;;;;;;;17.06;73.44;100562.03;4992498;28;20070;-76
2023/07/01 02:20:16;;;;;;;5.68;3.30;;;;;;;17.07;73.51;100566.19;4991605;28;20051;-76
2023/07/01 02:22:42;;;;;;;3.45;3.05;;;;;;;17.06;73.62;100564.72;4991519;28;20512;-76
2023/07/01 02:25:09;;;;;;;4.78;3.08;;;;;;;17.06;73.34;100560.06;4990542;28;20419;-75
2023/07/01 02:27:36;;;;;;;3.88;2.75;;;;;;;17.04;73.51;100556.41;4991743;28;20186;-75
2023/07/01 02:30:03;;;;;;;5.40;2.70;;;;;;;17.00;73.14;100553.94;4991615;28;20439;-75
2023/07/01 02:32:30;;;;;;;7.22;2.83;;;;;;;17.02;73.21;100548.06;4991885;28;20106;-76
2023/07/01 02:34:57;;;;;;;8.82;2.97;;;;;;;17.01;73.65;100550.03;4974538;28;20054;-75
2023/07/01 02:37:23;;;;;;;4.45;3.08;;;;;;;17.02;73.74;100550.78;4993252;28;20054;-76
2023/07/01 02:39:50;;;;;;;3.00;2.80;;;;;;;17.02;73.82;100538.06;4995312;28;20074;-76
2023/07/01 02:42:19;;;;;;;6.32;2.95;;;;;;;17.02;74.06;100542.69;4977253;28;20542;-76
2023/07/01 02:44:47;;;;;;;4.80;3.03;;;;;;;16.99;73.96;100534.38;4994293;28;20047;-76
2023/07/01 02:47:14;;;;;;;8.50;3.03;;;;;;;16.99;74.52;100539.03;4994720;28;20503;-76
2023/07/01 02:49:42;;;;;;;6.10;3.13;;;;;;;17.00;74.01;100532.44;4994964;28;20047;-76
2023/07/01 02:52:10;;;;;;;3.45;3.15;;;;;;;17.00;74.58;100529.75;4994417;28;20046;-76
2023/07/01 02:54:40;;;;;;;3.72;3.10;;;;;;;17.01;74.46;100533.91;4994712;28;20054;-76
2023/07/01 02:57:08;;;;;;;6.53;3.30;;;;;;;16.97;75.01;100523.38;4994726;28;20046;-77
2023/07/01 02:59:35;;;;;;;4.75;2.70;;;;;;;16.99;74.92;100518.25;4976900;28;20053;-77
2023/07/01 03:02:06;;;;;;;5.90;2.90;;;;;;;16.99;74.94;100526.31;4994973;28;20039;-77
2023/07/01 03:04:33;;;;;;;5.35;3.00;;;;;;;16.98;75.31;100513.38;4976888;28;20133;-78
2023/07/01 03:07:01;;;;;;;8.07;2.97;;;;;;;16.99;75.16;100529.00;4993576;28;20042;-77
2023/07/01 03:09:27;;;;;;;3.45;2.75;;;;;;;16.97;75.44;100517.28;4994184;28;20500;-76
2023/07/01 03:11:55;;;;;;;5.28;3.05;;;;;;;16.96;75.63;100526.56;4976747;28;20409;-76
2023/07/01 03:14:22;;;;;;;3.35;2.92;;;;;;;16.96;75.27;100519.22;4993715;28;20098;-76
2023/07/01 03:16:52;;;;;;;4.32;2.92;;;;;;;16.96;75.96;100510.44;4994623;28;20115;-76
2023/07/01 03:19:18;;;;;;;3.67;2.55;;;;;;;16.96;75.64;100513.84;4993905;28;20530;-76
2023/07/01 03:21:46;;;;;;;4.03;3.30;;;;;;;16.97;76.50;100506.53;4994744;28;20050;-76
2023/07/01 03:24:13;;;;;;;4.40;2.83;;;;;;;16.96;75.78;100497.00;4994109;28;20039;-76
2023/07/01 03:26:42;;;;;;;5.38;2.90;;;;;;;16.97;76.38;100503.84;4994237;28;20047;-76
2023/07/01 03:29:09;;;;;;;5.28;3.13;;;;;;;16.93;76.61;100498.69;4993649;28;20043;-76
2023/07/01 03:31:36;;;;;;;3.35;3.00;;;;;;;16.95;76.84;100490.88;4993961;28;20039;-75
2023/07/01 03:34:03;;;;;;;4.10;2.85;;;;;;;16.94;76.71;100492.09;4994436;28;20042;-76
2023/07/01 03:36:30;;;;;;;4.38;2.75;;;;;;;16.94;77.14;100489.41;4994295;28;20047;-76
2023/07/01 03:38:59;;;;;;;6.43;3.30;;;;;;;16.93;77.41;100487.94;4994419;28;20046;-76
2023/07/01 03:41:26;;;;;;;6.05;3.30;;;;;;;16.95;77.81;100482.81;4993103;28;20078;-77
2023/07/01 03:43:53;;;;;;;3.35;3.05;;;;;;;16.95;77.73;100479.38;4994356;28;20050;-76
2023/07/01 03:46:19;;;;;;;4.80;2.90;;;;;;;16.95;78.31;100479.38;4993310;28;20522;-76
2023/07/01 03:48:46;;;;;;;4.18;2.92;;;;;;;16.93;78.32;100474.50;4993847;28;20043;-76
2023/07/01 03:51:13;;;;;;;4.15;3.47;;;;;;;16.92;78.89;100477.69;4976386;28;20053;-76
2023/07/01 03:53:39;;;;;;;9.43;3.20;;;;;;;16.93;79.50;100473.75;4993796;28;20090;-76
2023/07/01 03:56:06;;;;;;;6.38;3.50;;;;;;;16.90;79.45;100466.69;4993380;28;20047;-77
2023/07/01 03:58:33;;;;;;;7.22;3.30;;;;;;;16.90;79.85;100467.41;4993531;28;20085;-76
2023/07/01 04:01:00;;;;;;;6.82;3.22;;;;;;;16.89;80.40;100465.22;4994199;28;20042;-76
2023/07/01 04:03:26;;;;;;;7.30;3.38;;;;;;;16.86;80.54;100464.22;4993550;28;20042;-77
2023/07/01 04:05:53;;;;;;;6.35;3.70;;;;;;;16.83;80.41;100457.13;4993770;28;20043;-77
2023/07/01 04:08:20;;;;;;;3.50;3.15;;;;;;;16.85;81.31;100454.69;4993218;28;20054;-75
2023/07/01 04:10:47;;;;;;;3.40;3.13;;;;;;;16.84;81.14;100453.22;4993168;28;20042;-76
2023/07/01 04:13:14;;;;;;;4.53;3.30;;;;;;;16.83;81.86;100448.34;4993300;28;20568;-76
2023/07/01 04:15:41;;;;;;;3.67;3.38;;;;;;;16.84;82.58;100450.53;4993424;28;20047;-76
2023/07/01 04:18:08;;;;;;;6.88;3.33;;;;;;;16.84;82.52;100444.44;4993426;28;20055;-76
2023/07/01 04:20:35;;;;;;;4.70;3.50;;;;;;;16.82;82.29;100447.59;4975808;28;20074;-75
2023/07/01 04:23:01;;;;;;;4.93;3.08;;;;;;;16.83;82.09;100435.63;4993731;28;20465;-76
2023/07/01 04:25:29;;;;;;;6.47;3.17;;;;;;;16.82;82.07;100438.81;4992881;28;20056;-76
2023/07/01 04:27:56;;;;;;;3.60;3.30;;;;;;;16.79;82.64;100437.13;4993570;28;20071;-77
2023/07/01 04:30:23;;;;;;;4.60;2.97;;;;;;;16.79;82.72;100445.19;4993441;28;20543;-76
2023/07/01 04:32:50;;;;;;;7.10;3.40;;;;;;;16.79;83.27;100442.50;4994172;28;20049;-77
2023/07/01 04:35:16;;;;;;;3.35;3.05;;;;;;;16.77;83.27;100444.94;4994021;28;20415;-76
2023/07/01 04:37:43;;;;;;;3.90;3.58;;;;;;;16.76;83.86;100432.72;4993698;28;20102;-77
2023/07/01 04:40:11;;;;;;;3.50;3.20;;;;;;;16.72;84.56;100432.25;4975631;28;20050;-77
2023/07/01 04:42:46;;;;;;;5.00;3.90;;;;;;;16.72;84.63;100430.28;4993626;28;20486;-76
2023/07/01 04:45:13;;;;;;;5.50;3.65;;;;;;;16.69;85.59;100425.88;4993905;28;20126;-76
2023/07/01 04:47:39;;;;;;;4.70;3.65;;;;;;;16.67;85.51;100429.06;4993615;28;20049;-76
2023/07/01 04:50:06;;;;;;;6.47;4.45;;;;;;;16.65;85.86;100434.19;4993847;28;20045;-76
2023/07/01 04:52:33;;;;;;;4.05;3.70;;;;;;;16.64;86.67;100430.03;4993443;28;20074;-75
2023/07/01 04:54:59;;;;;;;4.13;3.78;;;;;;;16.65;87.01;100426.13;4993334;28;20393;-75
2023/07/01 04:57:26;;;;;;;5.15;4.45;;;;;;;16.65;87.41;100423.44;4993860;28;20138;-73
2023/07/01 04:59:53;;;;;;;6.35;4.05;;;;;;;16.66;87.43;100424.16;4992613;28;20074;-76
2023/07/01 05:02:20;;;;;;;5.32;3.95;;;;;;;16.67;87.44;100418.31;4993528;28;20039;-75
2023/07/01 05:04:47;;;;;;;4.28;3.88;;;;;;;16.72;87.47;100424.19;4993669;28;20039;-76
2023/07/01 05:07:14;;;;;;;4.13;3.78;;;;;;;16.73;87.99;100420.25;4993394;28;20212;-76
2023/07/01 05:09:40;;;;;;;4.68;4.28;;;;;;;16.73;88.15;100417.56;4992850;28;20522;-77
2023/07/01 05:12:07;;;;;;;5.40;4.10;;;;;;;16.73;88.01;100418.31;4993396;28;20540;-77
2023/07/01 05:14:34;;;;;;;4.63;4.22;;;;;;;16.73;89.00;100421.00;4976012;28;20077;-77
2023/07/01 05:17:01;;;;;;;4.05;3.75;;;;;;;16.73;89.15;100426.38;4993966;28;20047;-77
2023/07/01 05:19:27;;;;;;;4.53;4.13;;;;;;;16.69;88.79;100415.13;4993274;28;20043;-77
2023/07/01 05:21:54;;;;;;;4.30;4.00;;;;;;;16.64;89.81;100413.91;4993220;28;20109;-76
2023/07/01 05:24:21;;;;;;;5.28;4.78;;;;;;;16.64;90.07;100413.91;4992694;28;20494;-77
2023/07/01 05:26:49;;;;;;;4.57;4.20;;;;;;;16.63;90.30;100404.34;4993376;28;20066;-76
2023/07/01 05:29:17;;;;;;;4.43;4.10;;;;;;;16.63;90.67;100409.00;4993226;28;20055;-76
2023/07/01 05:31:45;;;;;;;4.70;4.30;;;;;;;16.63;90.17;100417.78;4993120;28;20101;-75
2023/07/01 05:34:11;;;;;;;4.60;4.38;;;;;;;16.63;90.74;100404.34;4993208;28;20141;-77
2023/07/01 05:36:38;;;;;;;4.53;4.22;;;;;;;16.62;91.32;100400.19;4992789;28;20082;-77
2023/07/01 05:39:05;;;;;;;4.97;4.25;;;;;;;16.68;91.01;100410.97;4992685;28;20490;-76
2023/07/01 05:41:31;;;;;;;4.55;4.15;;;;;;;16.68;91.15;100405.59;4992856;28;20492;-77
2023/07/01 05:43:58;;;;;;;5.40;4.88;;;;;;;16.68;91.70;100402.91;4993053;28;20494;-75
2023/07/01 05:46:27;;;;;;;4.60;4.20;;;;;;;16.67;92.26;100406.81;4992672;28;20087;-76
2023/07/01 05:48:54;;;;;;;4.90;4.50;;;;;;;16.71;91.96;100401.94;4975529;28;20135;-76
2023/07/01 05:51:21;;;;;;;4.60;4.20;;;;;;;16.75;91.80;100402.44;4992728;28;20472;-75
2023/07/01 05:53:48;;;;;;;4.93;4.45;;;;;;;16.73;92.32;100410.25;4992568;28;20582;-76
2023/07/01 05:56:15;;;;;;;4.78;4.47;;;;;;;16.71;92.59;100401.94;4993217;28;20058;-76
2023/07/01 05:58:42;;;;;;;6.80;4.70;;;;;;;16.70;92.93;100400.47;4992710;28;20058;-76
2023/07/01 06:01:09;;;;;;;4.88;4.57;;;;;;;16.69;92.65;100399.00;4993083;28;20046;-77
2023/07/01 06:03:35;;;;;;;5.72;4.43;;;;;;;16.72;92.88;100394.59;4992467;28;20059;-76
2023/07/01 06:06:02;;;;;;;5.38;4.88;;;;;;;16.75;93.07;100399.75;4992901;28;20050;-74
2023/07/01 06:08:29;;;;;;;4.68;4.38;;;;;;;16.80;93.29;100400.94;4991743;28;20399;-75
2023/07/01 06:10:55;;;;;;;4.95;4.45;;;;;;;16.80;93.89;100398.97;4994195;28;20059;-74
2023/07/01 06:13:22;;;;;;;4.80;4.50;;;;;;;16.78;94.38;100398.03;4978512;28;20055;-75
2023/07/01 06:15:48;;;;;;;4.35;4.05;;;;;;;16.75;94.34;100399.75;4996274;28;20153;-76
2023/07/01 06:18:15;;;;;;;4.43;4.13;;;;;;;16.74;94.74;100392.91;4978867;28;20106;-75
2023/07/01 06:20:43;;;;;;;4.80;4.50;;;;;;;16.76;94.89;100395.09;4995666;28;20054;-74
2023/07/01 06:23:10;;;;;;;5.18;4.70;;;;;;;16.73;96.51;100393.38;4995473;28;20500;-73
2023/07/01 06:25:36;;;;;;;4.70;4.40;;;;;;;16.71;97.25;100393.88;4995498;28;20126;-74
2023/07/01 06:28:03;;;;;;;5.00;4.60;;;;;;;16.69;99.04;100392.91;4995410;28;20051;-73
2023/07/01 06:30:30;;;;;;;4.82;4.47;;;;;;;16.66;99.59;100387.28;4994155;28;20061;-74
2023/07/01 06:32:56;;;;;;;4.80;4.50;;;;;;;16.63;100.00;100395.56;4978457;28;20051;-73
2023/07/01 06:35:23;;;;;;;5.00;4.57;;;;;;;16.64;100.00;100397.06;4995085;28;20496;-73
2023/07/01 06:37:49;;;;;;;5.18;4.72;;;;;;;16.67;100.00;100390.69;4995984;28;20045;-74
2023/07/01 06:40:16;;;;;;;5.10;4.70;;;;;;;16.66;100.00;100394.59;4995751;28;20512;-74
2023/07/01 06:42:43;;;;;;;4.35;4.13;;;;;;;16.65;100.00;100388.50;4995588;28;20047;-74
2023/07/01 06:45:10;;;;;;;4.85;4.43;;;;;;;16.67;100.00;100385.31;4994109;28;20081;-73
2023/07/01 06:47:36;;;;;;;5.80;4.80;;;;;;;16.65;100.00;100391.19;4977992;28;20058;-74
2023/07/01 06:50:03;;;;;;;4.43;4.13;;;;;;;16.65;100.00;100379.72;4995375;28;20043;-74
2023/07/01 06:52:30;;;;;;;4.88;4.47;;;;;;;16.68;100.00;100384.09;4995270;28;20039;-74
2023/07/01 06:54:57;;;;;;;4.88;4.25;;;;;;;16.68;100.00;100381.41;4994068;28;20482;-74
2023/07/01 06:57:24;;;;;;;5.03;4.63;;;;;;;16.71;100.00;100380.44;4995036;28;20130;-74
2023/07/01 06:59:50;;;;;;;12.93;4.10;;;;;;;16.70;100.00;100381.66;4995574;28;20051;-74
2023/07/01 07:02:17;;;;;;;4.78;4.38;;;;;;;16.71;100.00;100382.41;4995393;28;20480;-74
2023/07/01 07:04:45;;;;;;;4.40;4.20;;;;;;;16.71;100.00;100372.38;4995247;28;20047;-75
2023/07/01 07:07:11;;;;;;;6.53;5.07;;;;;;;16.71;100.00;100380.44;4978339;28;20089;-74
2023/07/01 07:09:38;;;;;;;4.80;4.40;;;;;;;16.71;100.00;100374.34;4995194;28;20086;-72
2023/07/01 07:12:05;;;;;;;7.03;4.88;;;;;;;16.71;100.00;100377.75;4977809;28;20607;-76
2023/07/01 07:14:32;;;;;;;5.45;5.05;;;;;;;16.71;100.00;100380.44;4977250;28;20439;-74
2023/07/01 07:16:59;;;;;;;5.43;5.03;;;;;;;16.70;100.00;100376.28;4995088;28;20047;-74
2023/07/01 07:19:25;;;;;;;5.55;5.13;;;;;;;16.71;100.00;100380.44;4993090;28;20596;-74
2023/07/01 07:21:52;;;;;;;5.35;4.93;;;;;;;16.71;100.00;100377.03;4993747;28;20066;-73
2023/07/01 07:24:19;;;;;;;6.70;5.57;;;;;;;16.72;100.00;100365.03;4994708;28;20130;-74
2023/07/01 07:26:57;;;;;;;6.53;5.88;;;;;;;16.74;100.00;100367.97;4993827;28;20034;-74
2023/07/01 07:29:24;;;;;;;7.82;7.22;;;;;;;16.76;100.00;100382.38;4994267;28;20051;-73
2023/07/01 07:31:51;;;;;;;7.90;6.32;;;;;;;16.77;100.00;100377.75;4994873;28;20066;-74
2023/07/01 07:34:18;;;;;;;6.40;5.90;;;;;;;16.78;100.00;100376.53;4976683;28;20130;-74
2023/07/01 07:36:45;;;;;;;6.32;5.63;;;;;;;16.78;100.00;100385.31;4994649;28;20129;-74
2023/07/01 07:39:14;;;;;;;6.70;6.30;;;;;;;16.80;100.00;100384.81;4994837;28;20043;-74
2023/07/01 07:41:41;;;;;;;7.03;6.53;;;;;;;16.78;100.00;100376.53;4994056;28;20046;-74
2023/07/01 07:44:08;;;;;;;6.40;6.00;;;;;;;16.82;100.00;100374.31;4993833;28;20046;-74
2023/07/01 07:46:35;;;;;;;6.78;6.18;;;;;;;16.87;100.00;100376.25;4993773;28;20496;-74
2023/07/01 07:49:02;;;;;;;6.93;6.30;;;;;;;16.93;100.00;100374.28;4993947;28;20500;-74
2023/07/01 07:51:28;;;;;;;7.10;6.50;;;;;;;16.94;100.00;100371.09;4993928;28;20515;-74
2023/07/01 07:53:55;;;;;;;7.28;6.65;;;;;;;16.96;100.00;100373.31;4994270;28;20047;-74
2023/07/01 07:56:22;;;;;;;6.22;5.82;;;;;;;16.99;100.00;100372.31;4994085;28;20050;-74
2023/07/01 07:58:49;;;;;;;8.02;5.95;;;;;;;17.00;100.00;100374.53;4994122;28;20152;-75
2023/07/01 08:01:15;;;;;;;5.93;5.60;;;;;;;17.05;100.00;100369.63;4994240;28;20050;-74
2023/07/01 08:03:42;;;;;;;6.53;5.78;;;;;;;17.06;100.00;100369.13;4993958;28;20055;-75
2023/07/01 08:06:09;;;;;;;7.03;6.53;;;;;;;17.16;100.00;100366.91;4993954;28;20125;-75
2023/07/01 08:08:36;;;;;;;5.90;5.35;;;;;;;17.20;100.00;100364.69;4993654;28;20042;-72
2023/07/01 08:11:02;;;;;;;5.53;5.13;;;;;;;17.24;100.00;100354.41;4993654;28;20114;-74
2023/07/01 08:13:29;;;;;;;11.52;6.00;;;;;;;17.31;100.00;100359.28;4993694;28;20447;-75
2023/07/01 08:15:57;;;;;;;5.65;5.25;;;;;;;17.39;100.00;100362.91;4993901;28;20039;-75
2023/07/01 08:18:24;;;;;;;6.70;5.00;;;;;;;17.42;100.00;100361.91;4993052;28;20531;-75
2023/07/01 08:20:50;;;;;;;5.10;4.80;;;;;;;17.42;100.00;100356.53;4993662;28;20038;-75
2023/07/01 08:23:17;;;;;;;4.82;4.53;;;;;;;17.39;100.00;100362.19;4993690;28;20098;-75
2023/07/01 08:25:44;;;;;;;4.45;4.25;;;;;;;17.37;100.00;100357.28;4992877;28;20054;-75
2023/07/01 08:28:11;;;;;;;7.72;4.28;;;;;;;17.39;100.00;100356.81;4976794;28;20126;-75
2023/07/01 08:30:37;;;;;;;4.70;4.40;;;;;;;17.44;100.00;100354.09;4993651;28;20511;-75
2023/07/01 08:33:04;;;;;;;4.55;4.22;;;;;;;17.42;100.00;100353.84;4992829;28;20051;-75
2023/07/01 08:35:31;;;;;;;4.85;4.20;;;;;;;17.44;100.00;100356.78;4993630;28;20078;-75
2023/07/01 08:37:57;;;;;;;4.65;4.30;;;;;;;17.44;100.00;100358.75;4975503;28;20051;-76
2023/07/01 08:40:24;;;;;;;4.57;4.35;;;;;;;17.52;100.00;100349.66;4992990;28;20498;-77
2023/07/01 08:42:51;;;;;;;3.92;3.72;;;;;;;17.62;100.00;100353.50;4993516;28;20047;-78
2023/07/01 08:45:21;;;;;;;4.10;3.78;;;;;;;17.64;100.00;100344.94;4975971;28;20109;-76
2023/07/01 08:48:08;;;;;;;3.72;3.53;;;;;;;17.70;100.00;100345.66;4992968;28;20061;-77
2023/07/01 08:50:52;;;;;;;3.75;3.55;;;;;;;17.79;100.00;100352.72;4993242;28;20055;-76
2023/07/01 08:53:20;;;;;;;3.80;3.60;;;;;;;17.81;100.00;100356.38;4991774;28;20042;-77
2023/07/01 08:55:46;;;;;;;4.20;4.00;;;;;;;17.86;100.00;100346.81;4975179;28;20054;-77
2023/07/01 08:58:14;;;;;;;3.60;3.42;;;;;;;17.87;100.00;100351.69;4973790;28;20047;-76
2023/07/01 09:00:43;;;;;;;3.67;3.50;;;;;;;17.92;100.00;100353.63;4991456;28;20046;-76
2023/07/01 09:03:12;;;;;;;29.52;5.32;;;;;;;17.87;100.00;100353.66;4991107;28;20050;-76
2023/07/01 09:05:38;;;;;;;10.20;3.83;;;;;;;17.81;100.00;100353.69;4991102;28;20047;-76
2023/07/01 09:08:05;;;;;;;8.23;4.00;;;;;;;17.78;100.00;100356.63;4975009;28;20066;-76
2023/07/01 09:10:31;;;;;;;4.35;4.07;;;;;;;17.76;100.00;100351.75;4991674;28;20051;-76
2023/07/01 09:13:11;;;;;;;3.97;3.67;;;;;;;17.74;100.00;100356.91;4975037;28;20143;-74
2023/07/01 09:15:44;;;;;;;4.78;4.57;;;;;;;17.74;100.00;100348.81;4992640;28;20334;-74
2023/07/01 09:18:25;;;;;;;4.25;4.05;;;;;;;17.76;100.00;100349.06;4992832;28;20042;-76
2023/07/01 09:20:53;;;;;;;4.30;4.00;;;;;;;17.78;100.00;100345.88;4993215;28;20460;-75
2023/07/01 09:23:36;;;;;;;5.95;4.25;;;;;;;17.85;100.00;100342.66;4992628;28;20057;-75
2023/07/01 09:26:13;;;;;;;5.13;4.68;;;;;;;17.91;100.00;100343.34;4993029;28;20050;-75
2023/07/01 09:28:41;;;;;;;4.57;4.35;;;;;;;17.97;100.00;100344.78;4992703;28;20054;-75
2023/07/01 09:31:10;;;;;;;4.90;4.55;;;;;;;18.10;100.00;100346.16;4992706;28;20046;-75
2023/07/01 09:33:37;;;;;;;4.55;4.35;;;;;;;18.24;100.00;100340.41;4992357;28;20051;-76
2023/07/01 09:36:05;;;;;;;4.72;4.53;;;;;;;18.32;100.00;100333.25;4992437;28;20094;-76
2023/07/01 09:38:34;;;;;;;4.80;4.60;;;;;;;18.44;100.00;100333.13;4992775;28;20047;-74
2023/07/01 09:41:14;;;;;;;4.97;4.68;;;;;;;18.54;100.00;100334.28;4992739;28;20137;-74
2023/07/01 09:43:41;;;;;;;4.47;4.20;;;;;;;18.52;100.00;100339.44;4974748;28;20050;-73
2023/07/01 09:46:08;;;;;;;5.20;4.68;;;;;;;18.45;100.00;100337.28;4996443;28;20123;-74
2023/07/01 09:48:35;;;;;;;3.75;3.65;;;;;;;18.30;100.00;100333.03;4998912;28;20094;-74
2023/07/01 09:51:06;;;;;;;4.30;4.10;;;;;;;18.35;100.00;100336.91;4998494;28;20226;-74
2023/07/01 09:53:34;;;;;;;4.50;4.20;;;;;;;18.44;100.00;100335.84;4998843;28;20090;-74
2023/07/01 09:56:04;;;;;;;4.25;4.05;;;;;;;18.49;100.00;100329.66;4998730;28;20107;-74
2023/07/01 09:58:32;;;;;;;4.53;4.00;;;;;;;18.48;100.00;100325.50;4998214;28;20500;-74
2023/07/01 10:01:02;;;;;;;4.43;4.07;;;;;;;18.57;100.00;100319.78;4998794;28;20117;-74
2023/07/01 10:03:30;;;;;;;3.60;3.40;;;;;;;18.62;100.00;100319.03;4981263;28;20055;-74
2023/07/01 10:05:57;;;;;;;4.22;3.80;;;;;;;18.61;100.00;100321.00;4999048;28;20464;-74
2023/07/01 10:08:23;;;;;;;3.60;3.50;;;;;;;18.70;100.00;100319.94;4980671;28;20047;-74
2023/07/01 10:11:11;;;;;;;3.58;3.38;;;;;;;18.83;100.00;100319.31;4981334;28;20047;-74
2023/07/01 10:13:43;;;;;;;19.65;4.25;;;;;;;18.86;100.00;100323.69;4979627;28;20065;-75
2023/07/01 10:16:09;;;;;;;3.95;3.17;;;;;;;18.83;100.00;100314.66;4980561;28;20110;-73
2023/07/01 10:18:36;;;;;;;3.22;3.13;;;;;;;18.89;100.00;100314.59;4980929;28;20209;-74
2023/07/01 10:21:25;;;;;;;3.65;3.40;;;;;;;18.93;100.00;100304.97;4999128;28;20043;-74
2023/07/01 10:23:52;;;;;;;3.15;3.05;;;;;;;18.87;100.00;100307.00;4999106;28;20491;-75
2023/07/01 10:26:31;;;;;;;3.20;3.10;;;;;;;18.94;100.00;100311.09;4998508;28;20035;-75
2023/07/01 10:29:02;;;;;;;3.40;3.20;;;;;;;18.96;100.00;100314.75;4980975;28;20038;-75
2023/07/01 10:31:28;;;;;;;3.20;3.00;;;;;;;18.96;100.00;100309.38;4999298;28;20047;-74
2023/07/01 10:34:02;;;;;;;6.32;3.70;;;;;;;18.97;100.00;100318.19;4998635;28;20055;-75
2023/07/01 10:36:29;;;;;;;3.25;3.05;;;;;;;18.95;100.00;100318.69;4998011;28;20082;-74
2023/07/01 10:39:34;;;;;;;2.90;2.80;;;;;;;18.96;100.00;100322.84;4999267;28;20049;-73
2023/07/01 10:42:01;;;;;;;2.20;2.10;;;;;;;18.92;100.00;100327.06;4998286;28;20126;-75
2023/07/01 10:44:28;;;;;;;2.20;2.10;;;;;;;18.96;100.00;100327.50;4998393;28;20207;-73
2023/07/01 10:47:15;;;;;;;1.40;1.40;;;;;;;19.06;100.00;100325.22;5013544;28;20047;-74
2023/07/01 10:50:04;;;;;;;1.70;1.60;;;;;;;19.21;100.00;100326.22;4998652;28;20526;-73
2023/07/01 10:52:32;;;;;;;2.13;2.00;;;;;;;19.42;100.00;100323.06;4997110;28;20055;-73
2023/07/01 10:55:00;;;;;;;1.50;1.50;;;;;;;19.49;100.00;100323.19;4999002;28;20078;-72
2023/07/01 10:57:28;;;;;;;1.92;1.60;;;;;;;19.62;100.00;100331.38;4995253;28;20055;-72
2023/07/01 11:00:36;;;;;;;2.25;1.73;;;;;;;19.84;100.00;100321.50;4995407;28;20142;-72
2023/07/01 11:03:03;;;;;;;3.30;1.98;;;;;;;19.69;100.00;100327.38;4995193;28;20046;-74
2023/07/01 11:05:31;;;;;;;2.03;1.90;;;;;;;19.52;100.00;100322.22;4995300;28;20054;-74
2023/07/01 11:08:07;;;;;;;3.47;2.25;;;;;;;19.49;100.00;100325.91;4995145;28;20244;-73
2023/07/01 11:10:34;;;;;;;3.15;1.90;;;;;;;19.44;100.00;100326.69;4994698;28;20055;-74
2023/07/01 11:13:03;;;;;;;2.10;2.00;;;;;;;19.45;100.00;100322.03;4994842;28;20073;-74
2023/07/01 11:15:30;;;;;;;6.25;3.03;;;;;;;19.49;100.00;100323.19;4994896;28;20129;-74
2023/07/01 11:17:58;;;;;;;3.40;3.20;;;;;;;19.56;100.00;100327.31;4977482;28;20043;-74
2023/07/01 11:20:24;;;;;;;4.07;3.30;;;;;;;19.72;100.00;100328.31;4994046;28;20492;-74
2023/07/01 11:22:51;;;;;;;3.47;3.15;;;;;;;19.82;100.00;100329.41;4995111;28;20051;-73
2023/07/01 11:25:18;;;;;;;3.55;3.35;;;;;;;20.03;100.00;100329.56;4977583;28;20066;-74
2023/07/01 11:27:44;;;;;;;6.07;3.50;;;;;;;20.07;98.97;100330.00;4994301;28;20047;-74